ADDS METAR Data INFO
IDs: Format: Raw Decoded Include TAF

Data at: 1058 UTC 24 Nov 2017

KW43 241035Z AUTO 22010KT 10SM SCT120 12/00 A2959 RMK AO2
KW43 241015Z AUTO 22008KT 10SM SCT120 11/00 A2960 RMK AO2
KW43 240955Z AUTO 22008KT 10SM SCT120 12/00 A2961 RMK AO2
KW43 240935Z AUTO 24006KT 10SM CLR 12/00 A2961 RMK AO2
KW43 240915Z AUTO 22009KT 10SM CLR 12/00 A2961 RMK AO2
KW43 240855Z AUTO 22009KT 10SM CLR 11/00 A2962 RMK AO2
KW43 240835Z AUTO 22010KT 10SM CLR 11/00 A2962 RMK AO2
KW43 240815Z AUTO 22008KT 10SM CLR 11/00 A2962 RMK AO2
KW43 240755Z AUTO 23007KT 10SM CLR 11/00 A2964 RMK AO2
KW43 240735Z AUTO 23007KT 10SM CLR 11/00 A2964 RMK AO2
KW43 240715Z AUTO 22009KT 10SM CLR 12/00 A2964 RMK AO2
KW43 240655Z AUTO 22009KT 10SM CLR 12/00 A2965 RMK AO2
KW43 240635Z AUTO 22009KT 10SM CLR 12/00 A2966 RMK AO2
KW43 240615Z AUTO 21009KT 10SM CLR 12/00 A2966 RMK AO2
KW43 240555Z AUTO 22007KT 10SM CLR 11/01 A2966 RMK AO2
KW43 240535Z AUTO 23006KT 10SM CLR 12/01 A2967 RMK AO2
KW43 240515Z AUTO 23008KT 10SM CLR 12/01 A2967 RMK AO2
KW43 240455Z AUTO 22009G14KT 10SM CLR 12/01 A2967 RMK AO2
KW43 240435Z AUTO 22009KT 10SM CLR 12/01 A2968 RMK AO2
KW43 240415Z AUTO 22010G16KT 10SM CLR 12/01 A2968 RMK AO2
KW43 240355Z AUTO 23007KT 10SM CLR 12/01 A2969 RMK AO2
KW43 240335Z AUTO 22009KT 10SM CLR 13/01 A2970 RMK AO2
KW43 240315Z AUTO 22009KT 10SM CLR 13/01 A2971 RMK AO2
KW43 240255Z AUTO 23009KT 10SM CLR 13/01 A2972 RMK AO2
KW43 240235Z AUTO 21010G14KT 10SM CLR 13/01 A2973 RMK AO2
KW43 240215Z AUTO 22008KT 10SM CLR 13/01 A2973 RMK AO2
KW43 240155Z AUTO 21011G16KT 10SM CLR 13/01 A2973 RMK AO2
KW43 240135Z AUTO 22009KT 10SM CLR 13/01 A2974 RMK AO2
KW43 240115Z AUTO 21010KT 10SM CLR 13/01 A2974 RMK AO2
KW43 240055Z AUTO 20010KT 10SM CLR 12/01 A2975 RMK AO2
KW43 240035Z AUTO 19011KT 10SM CLR 12/01 A2977 RMK AO2
KW43 240015Z AUTO 10SM CLR 11/01 A2977 RMK AO2
KW43 232355Z AUTO 19010KT 10SM CLR 11/01 A2978 RMK AO2
KW43 232335Z AUTO 20011KT 10SM CLR 13/01 A2979 RMK AO2
KW43 232315Z AUTO 20010KT 10SM CLR 13/01 A2979 RMK AO2
KW43 232255Z AUTO 20010KT 10SM CLR 13/01 A2980 RMK AO2
KW43 232235Z AUTO 21008KT 10SM CLR 13/01 A2981 RMK AO2
KW43 232215Z AUTO 21009KT 10SM CLR 15/01 A2981 RMK AO2
KW43 232155Z AUTO 20011G15KT 10SM CLR 15/02 A2981 RMK AO2
KW43 232135Z AUTO 21011KT 10SM CLR 16/01 A2982 RMK AO2
KW43 232115Z AUTO 21013KT 10SM CLR 16/02 A2982 RMK AO2
KW43 232055Z AUTO 21014G19KT 10SM CLR 16/02 A2982 RMK AO2
KW43 232035Z AUTO 21013KT 10SM CLR 16/02 A2984 RMK AO2
KW43 232015Z AUTO 20013G19KT 10SM CLR 17/02 A2985 RMK AO2
KW43 231955Z AUTO 21012KT 10SM CLR 16/02 A2986 RMK AO2
KW43 231935Z AUTO 22011KT 10SM CLR 16/02 A2987 RMK AO2
KW43 231915Z AUTO 21012G19KT 10SM CLR 16/02 A2988 RMK AO2
KW43 231855Z AUTO 22014G17KT 10SM CLR 16/02 A2990 RMK AO2
KW43 231835Z AUTO 22011KT 10SM CLR 17/02 A2990 RMK AO2
KW43 231815Z AUTO 22015G18KT 10SM CLR 17/02 A2990 RMK AO2
KW43 231755Z AUTO 22010G20KT 10SM CLR 16/02 A2992 RMK AO2
KW43 231735Z AUTO 21016G21KT 10SM CLR 16/02 A2993 RMK AO2
KW43 231715Z AUTO 22013G18KT 10SM CLR 15/02 A2995 RMK AO2
KW43 231655Z AUTO 22012G18KT 10SM CLR 15/02 A2995 RMK AO2
KW43 231635Z AUTO 22011G18KT 10SM CLR 14/02 A2996 RMK AO2
KW43 231615Z AUTO 22012KT 10SM CLR 13/02 A2996 RMK AO2
KW43 231555Z AUTO 22011G16KT 10SM CLR 12/02 A2997 RMK AO2
KW43 231535Z AUTO 23007KT 10SM CLR 11/02 A2998 RMK AO2
KW43 231515Z AUTO 23006KT 10SM CLR 11/02 A2998 RMK AO2
KW43 231455Z AUTO 21009KT 10SM CLR 10/02 A2998 RMK AO2
KW43 231435Z AUTO 22008KT 10SM CLR 09/02 A2999 RMK AO2
KW43 231415Z AUTO 21010KT 10SM CLR 08/01 A2999 RMK AO2
KW43 231355Z AUTO 21009KT 10SM CLR 08/02 A3000 RMK AO2
KW43 231335Z AUTO 22010KT 10SM CLR 09/02 A3001 RMK AO2
KW43 231315Z AUTO 22009KT 10SM CLR 08/02 A3001 RMK AO2
KW43 231255Z AUTO 22009KT 10SM CLR 08/02 A3001 RMK AO2
KW43 231235Z AUTO 23009KT 10SM CLR 08/02 A3003 RMK AO2
KW43 231215Z AUTO 25008KT 10SM CLR 06/01 A3003 RMK AO2
KW43 231155Z AUTO 25007KT 10SM CLR 06/02 A3002 RMK AO2
KW43 231135Z AUTO 21008KT 10SM CLR 06/01 A3003 RMK AO2
KW43 231115Z AUTO 24006KT 10SM CLR 07/02 A3003 RMK AO2
KW43 231055Z AUTO 23006KT 10SM CLR 07/02 A3003 RMK AO2
KW43 231035Z AUTO 23006KT 10SM CLR 05/02 A3004 RMK AO2
KW43 231015Z AUTO 22009KT 10SM CLR 06/02 A3005 RMK AO2
KW43 230955Z AUTO 23006KT 10SM CLR 05/01 A3007 RMK AO2
KW43 230935Z AUTO 22007KT 10SM CLR 07/02 A3006 RMK AO2
KW43 230915Z AUTO 21008KT 10SM CLR 08/02 A3007 RMK AO2
KW43 230855Z AUTO 22007KT 10SM CLR 08/03 A3008 RMK AO2
KW43 230835Z AUTO 22009KT 10SM CLR 09/03 A3008 RMK AO2
KW43 230815Z AUTO 22007KT 10SM CLR 07/03 A3008 RMK AO2
KW43 230755Z AUTO 20007KT 10SM CLR 07/02 A3008 RMK AO2
KW43 230735Z AUTO 20007KT 10SM CLR 08/02 A3009 RMK AO2
KW43 230715Z AUTO 21010KT 10SM CLR 09/03 A3010 RMK AO2
KW43 230655Z AUTO 22009KT 10SM CLR 10/03 A3011 RMK AO2
KW43 230635Z AUTO 21008KT 10SM CLR 08/03 A3011 RMK AO2
KW43 230615Z AUTO 20008KT 10SM CLR 08/03 A3012 RMK AO2
KW43 230555Z AUTO 20008KT 10SM CLR 08/03 A3012 RMK AO2
KW43 230535Z AUTO 20008KT 10SM CLR 09/03 A3012 RMK AO2
KW43 230515Z AUTO 20007KT 10SM CLR 08/02 A3013 RMK AO2
KW43 230455Z AUTO 20006KT 10SM CLR 10/03 A3012 RMK AO2
KW43 230435Z AUTO 21006KT 10SM CLR 11/03 A3013 RMK AO2
KW43 230415Z AUTO 21006KT 10SM CLR 10/03 A3013 RMK AO2
KW43 230355Z AUTO 20007KT 10SM CLR 10/03 A3014 RMK AO2
KW43 230335Z AUTO 20006KT 10SM CLR 10/03 A3014 RMK AO2
KW43 230315Z AUTO 20007KT 10SM CLR 10/03 A3013 RMK AO2
KW43 230255Z AUTO 21005KT 10SM CLR 12/03 A3013 RMK AO2
KW43 230235Z AUTO 23006KT 10SM CLR 12/03 A3012 RMK AO2
KW43 230215Z AUTO 25007KT 10SM CLR 12/03 A3012 RMK AO2
KW43 230155Z AUTO 23004KT 10SM CLR 12/03 A3012 RMK AO2
KW43 230135Z AUTO 24006KT 10SM CLR 11/03 A3012 RMK AO2
KW43 230115Z AUTO 21006KT 10SM CLR 11/03 A3011 RMK AO2
KW43 230055Z AUTO 18006KT 10SM CLR 12/03 A3011 RMK AO2
KW43 230035Z AUTO 27004KT 10SM CLR 14/03 A3010 RMK AO2
KW43 230015Z AUTO 26006KT 10SM CLR 15/03 A3010 RMK AO2
KW43 222355Z AUTO 26007KT 10SM CLR 14/03 A3010 RMK AO2
KW43 222335Z AUTO 27006KT 10SM CLR 15/03 A3011 RMK AO2
KW43 222315Z AUTO 26006G14KT 10SM SCT075 15/03 A3009 RMK AO2